TVS15H LKMT-HEMA
Flight info
| Callsign | TVS15H |
|---|---|
| Flight time | 3h 58m |
| Altitude | 35000 |
| Route | BILNA L617 KOPAT DCT BALAP DCT PARAK DCT NISVA Y505 NIKTI UN127 IMR UG80 BANRO UN128 RDS UL995 VANZA DCT RASDA A16 CVO A727 LXR M999 ELELI V730 MAK |
| Aircraft | A320/M-SDE2E3FGIJ1RWXY/H |
Departure
| Time | 2026-05-08 23:56 |
|---|---|
| Airport | Leoš Janáček Airport Ostrava (LKMT) |
Arrival
| Time | 2026-05-09 03:54 |
|---|---|
| Airport | Marsa Alam International Airport (HEMA) |
| Time | Latitude | Longitude | Altitude | Speed | Heading |
|---|---|---|---|---|---|
| 2026-05-08 22:59 | 49.69561 | 18.11967 | 831 ft | 0 kts | 175° |
| 2026-05-08 23:33 | 49.69562 | 18.11967 | 831 ft | 0 kts | 175° |
| 2026-05-08 23:48 | 49.69560 | 18.11965 | 831 ft | 1 kts | 192° |
| 2026-05-08 23:48 | 49.69557 | 18.11954 | 831 ft | 4 kts | 237° |
| 2026-05-08 23:49 | 49.69562 | 18.11879 | 827 ft | 8 kts | 306° |
| 2026-05-08 23:49 | 49.69600 | 18.11826 | 830 ft | 7 kts | 317° |
| 2026-05-08 23:49 | 49.69580 | 18.11721 | 830 ft | 16 kts | 225° |
| 2026-05-08 23:49 | 49.69510 | 18.11606 | 831 ft | 13 kts | 226° |
| 2026-05-08 23:50 | 49.69446 | 18.11504 | 830 ft | 16 kts | 225° |
| 2026-05-08 23:50 | 49.69351 | 18.11352 | 830 ft | 20 kts | 227° |
| 2026-05-08 23:50 | 49.69255 | 18.11194 | 830 ft | 20 kts | 226° |
| 2026-05-08 23:50 | 49.69166 | 18.11050 | 833 ft | 17 kts | 226° |
| 2026-05-08 23:51 | 49.69091 | 18.10929 | 834 ft | 15 kts | 226° |
| 2026-05-08 23:51 | 49.69002 | 18.10785 | 836 ft | 20 kts | 227° |
| 2026-05-08 23:51 | 49.68906 | 18.10628 | 833 ft | 20 kts | 227° |
| 2026-05-08 23:51 | 49.68813 | 18.10476 | 832 ft | 19 kts | 226° |
| 2026-05-08 23:52 | 49.68757 | 18.10367 | 836 ft | 11 kts | 255° |
| 2026-05-08 23:52 | 49.68795 | 18.10267 | 831 ft | 15 kts | 317° |
| 2026-05-08 23:52 | 49.68878 | 18.10146 | 835 ft | 17 kts | 316° |
| 2026-05-08 23:52 | 49.68943 | 18.10013 | 830 ft | 14 kts | 267° |
| 2026-05-08 23:53 | 49.68884 | 18.09891 | 832 ft | 18 kts | 226° |
| 2026-05-08 23:53 | 49.68778 | 18.09722 | 838 ft | 23 kts | 226° |
| 2026-05-08 23:53 | 49.68679 | 18.09565 | 843 ft | 18 kts | 225° |
| 2026-05-08 23:53 | 49.68612 | 18.09460 | 844 ft | 12 kts | 225° |
| 2026-05-08 23:54 | 49.68554 | 18.09401 | 842 ft | 9 kts | 193° |
| 2026-05-08 23:54 | 49.68546 | 18.09374 | 842 ft | 3 kts | 319° |
| 2026-05-08 23:54 | 49.68574 | 18.09394 | 831 ft | 3 kts | 50° |
| 2026-05-08 23:55 | 49.68607 | 18.09453 | 844 ft | 31 kts | 48° |
| 2026-05-08 23:55 | 49.68941 | 18.09980 | 830 ft | 103 kts | 47° |
| 2026-05-08 23:55 | 49.69569 | 18.11005 | 832 ft | 157 kts | 46° |
| 2026-05-08 23:55 | 49.70411 | 18.12402 | 944 ft | 190 kts | 45° |
| 2026-05-08 23:56 | 49.71310 | 18.13822 | 1783 ft | 184 kts | 45° |
| 2026-05-08 23:56 | 49.72213 | 18.15261 | 2500 ft | 186 kts | 45° |
| 2026-05-08 23:56 | 49.73115 | 18.16677 | 3045 ft | 188 kts | 46° |
| 2026-05-08 23:56 | 49.74009 | 18.18121 | 3492 ft | 198 kts | 46° |
| 2026-05-08 23:57 | 49.74993 | 18.19730 | 3675 ft | 221 kts | 47° |
| 2026-05-08 23:57 | 49.76106 | 18.21554 | 3909 ft | 245 kts | 46° |
| 2026-05-08 23:57 | 49.77289 | 18.23565 | 4393 ft | 259 kts | 54° |
| 2026-05-08 23:57 | 49.77896 | 18.26217 | 5053 ft | 266 kts | 90° |
| 2026-05-08 23:58 | 49.77416 | 18.28933 | 5696 ft | 272 kts | 123° |
| 2026-05-08 23:58 | 49.76173 | 18.31158 | 6390 ft | 276 kts | 139° |
| 2026-05-08 23:58 | 49.74685 | 18.33058 | 7076 ft | 280 kts | 144° |
| 2026-05-08 23:58 | 49.73106 | 18.34866 | 7753 ft | 284 kts | 150° |
| 2026-05-08 23:59 | 49.71299 | 18.36139 | 8439 ft | 287 kts | 164° |
| 2026-05-08 23:59 | 49.69356 | 18.36847 | 9136 ft | 289 kts | 174° |
| 2026-05-08 23:59 | 49.67326 | 18.37313 | 9833 ft | 293 kts | 173° |
| 2026-05-08 23:59 | 49.65298 | 18.37848 | 10423 ft | 301 kts | 173° |
| 2026-05-09 00:00 | 49.63154 | 18.38432 | 10574 ft | 325 kts | 172° |
| 2026-05-09 00:00 | 49.60854 | 18.39062 | 10753 ft | 344 kts | 172° |
| 2026-05-09 00:00 | 49.58467 | 18.39709 | 11281 ft | 351 kts | 172° |
| 2026-05-09 00:00 | 49.56053 | 18.40355 | 11930 ft | 354 kts | 172° |
| 2026-05-09 00:01 | 49.53613 | 18.41001 | 12596 ft | 357 kts | 172° |
| 2026-05-09 00:01 | 49.51155 | 18.41647 | 13277 ft | 360 kts | 172° |
| 2026-05-09 00:01 | 49.48678 | 18.42297 | 13919 ft | 362 kts | 172° |
| 2026-05-09 00:01 | 49.46189 | 18.42947 | 14496 ft | 365 kts | 173° |
| 2026-05-09 00:02 | 49.43672 | 18.43604 | 15062 ft | 367 kts | 173° |
| 2026-05-09 00:02 | 49.41145 | 18.44266 | 15621 ft | 370 kts | 172° |
| 2026-05-09 00:02 | 49.38674 | 18.45293 | 16150 ft | 376 kts | 161° |
| 2026-05-09 00:02 | 49.36250 | 18.46966 | 16693 ft | 380 kts | 157° |
| 2026-05-09 00:03 | 49.33873 | 18.48696 | 17227 ft | 383 kts | 157° |
| 2026-05-09 00:03 | 49.31423 | 18.50472 | 17767 ft | 386 kts | 158° |
| 2026-05-09 00:03 | 49.29020 | 18.52210 | 18291 ft | 389 kts | 158° |
| 2026-05-09 00:03 | 49.26567 | 18.53986 | 18769 ft | 392 kts | 158° |
| 2026-05-09 00:04 | 49.24097 | 18.55769 | 19256 ft | 394 kts | 158° |
| 2026-05-09 00:04 | 49.21611 | 18.57557 | 19737 ft | 396 kts | 158° |
| 2026-05-09 00:04 | 49.19104 | 18.59356 | 20219 ft | 398 kts | 158° |
| 2026-05-09 00:04 | 49.16590 | 18.61158 | 20712 ft | 400 kts | 158° |
| 2026-05-09 00:05 | 49.14059 | 18.62970 | 21187 ft | 402 kts | 158° |
| 2026-05-09 00:05 | 49.11524 | 18.64788 | 21656 ft | 404 kts | 158° |
| 2026-05-09 00:05 | 49.08964 | 18.66545 | 22119 ft | 405 kts | 160° |
| 2026-05-09 00:05 | 49.06337 | 18.68174 | 22583 ft | 407 kts | 162° |
| 2026-05-09 00:06 | 49.03681 | 18.69706 | 23044 ft | 408 kts | 163° |
| 2026-05-09 00:06 | 49.01014 | 18.71193 | 23489 ft | 410 kts | 163° |
| 2026-05-09 00:06 | 48.98328 | 18.72688 | 23872 ft | 411 kts | 163° |
| 2026-05-09 00:06 | 48.95636 | 18.74206 | 24202 ft | 413 kts | 162° |
| 2026-05-09 00:07 | 48.93821 | 18.75244 | 24432 ft | 414 kts | 162° |
| 2026-05-09 00:07 | 48.91121 | 18.76804 | 24770 ft | 415 kts | 162° |
| 2026-05-09 00:07 | 48.88455 | 18.78357 | 25102 ft | 417 kts | 162° |
| 2026-05-09 00:07 | 48.85746 | 18.79938 | 25429 ft | 418 kts | 162° |
| 2026-05-09 00:08 | 48.83027 | 18.81525 | 25751 ft | 419 kts | 162° |
| 2026-05-09 00:08 | 48.80298 | 18.83113 | 26077 ft | 421 kts | 162° |
| 2026-05-09 00:08 | 48.77561 | 18.84699 | 26378 ft | 422 kts | 162° |
| 2026-05-09 00:08 | 48.74809 | 18.86287 | 26683 ft | 424 kts | 163° |
| 2026-05-09 00:09 | 48.72052 | 18.87872 | 26989 ft | 425 kts | 163° |
| 2026-05-09 00:09 | 48.69276 | 18.89467 | 27290 ft | 427 kts | 163° |
| 2026-05-09 00:09 | 48.66502 | 18.91067 | 27551 ft | 428 kts | 163° |
| 2026-05-09 00:09 | 48.63715 | 18.92676 | 27830 ft | 429 kts | 163° |
| 2026-05-09 00:10 | 48.60917 | 18.94292 | 28100 ft | 431 kts | 163° |
| 2026-05-09 00:10 | 48.58117 | 18.95903 | 28369 ft | 432 kts | 163° |
| 2026-05-09 00:10 | 48.55301 | 18.97516 | 28623 ft | 434 kts | 163° |
| 2026-05-09 00:10 | 48.52471 | 18.99134 | 28863 ft | 435 kts | 163° |
| 2026-05-09 00:11 | 48.49631 | 19.00754 | 29099 ft | 437 kts | 163° |
| 2026-05-09 00:11 | 48.46788 | 19.02375 | 29340 ft | 438 kts | 163° |
| 2026-05-09 00:11 | 48.43934 | 19.04001 | 29549 ft | 439 kts | 163° |
| 2026-05-09 00:11 | 48.41066 | 19.05633 | 29773 ft | 441 kts | 163° |
| 2026-05-09 00:12 | 48.38193 | 19.07270 | 29971 ft | 442 kts | 163° |
| 2026-05-09 00:12 | 48.35309 | 19.08909 | 30178 ft | 444 kts | 163° |
| 2026-05-09 00:12 | 48.32423 | 19.10547 | 30384 ft | 444 kts | 163° |
| 2026-05-09 00:12 | 48.29537 | 19.12188 | 30650 ft | 443 kts | 163° |
| 2026-05-09 00:13 | 48.26660 | 19.13820 | 30906 ft | 442 kts | 163° |
| 2026-05-09 00:13 | 48.23787 | 19.15442 | 31163 ft | 441 kts | 163° |
| 2026-05-09 00:13 | 48.20918 | 19.17058 | 31411 ft | 440 kts | 163° |
| 2026-05-09 00:13 | 48.18053 | 19.18670 | 31670 ft | 439 kts | 163° |
| 2026-05-09 00:14 | 48.15204 | 19.20269 | 31920 ft | 438 kts | 163° |
| 2026-05-09 00:14 | 48.12353 | 19.21870 | 32179 ft | 437 kts | 163° |
| 2026-05-09 00:14 | 48.09511 | 19.23466 | 32427 ft | 436 kts | 163° |
| 2026-05-09 00:14 | 48.06685 | 19.25049 | 32677 ft | 434 kts | 164° |
| 2026-05-09 00:15 | 48.03832 | 19.26532 | 32932 ft | 432 kts | 166° |
| 2026-05-09 00:15 | 48.00974 | 19.27885 | 33171 ft | 430 kts | 167° |
| 2026-05-09 00:15 | 47.98118 | 19.29156 | 33428 ft | 429 kts | 168° |
| 2026-05-09 00:15 | 47.95259 | 19.30397 | 33684 ft | 427 kts | 168° |
| 2026-05-09 00:16 | 47.92411 | 19.31637 | 33948 ft | 426 kts | 167° |
| 2026-05-09 00:16 | 47.89525 | 19.32914 | 34191 ft | 425 kts | 167° |
| 2026-05-09 00:16 | 47.86656 | 19.34210 | 34375 ft | 425 kts | 167° |
| 2026-05-09 00:16 | 47.83867 | 19.35487 | 34522 ft | 425 kts | 167° |
| 2026-05-09 00:17 | 47.81000 | 19.36804 | 34675 ft | 426 kts | 167° |
| 2026-05-09 00:17 | 47.78205 | 19.38085 | 34809 ft | 427 kts | 167° |
| 2026-05-09 00:17 | 47.75362 | 19.39382 | 34947 ft | 427 kts | 167° |
| 2026-05-09 00:17 | 47.72524 | 19.40674 | 35069 ft | 428 kts | 167° |
| 2026-05-09 00:18 | 47.69682 | 19.41964 | 35088 ft | 427 kts | 167° |
| 2026-05-09 00:18 | 47.63991 | 19.44549 | 35085 ft | 427 kts | 167° |
| 2026-05-09 00:19 | 47.58312 | 19.47111 | 35085 ft | 427 kts | 167° |
| 2026-05-09 00:19 | 47.52625 | 19.49672 | 35085 ft | 427 kts | 166° |
| 2026-05-09 00:20 | 47.46933 | 19.52229 | 35081 ft | 427 kts | 166° |
| 2026-05-09 00:20 | 47.41250 | 19.54788 | 35077 ft | 427 kts | 166° |
| 2026-05-09 00:21 | 47.35551 | 19.57344 | 35069 ft | 427 kts | 166° |
| 2026-05-09 00:21 | 47.29855 | 19.59885 | 35066 ft | 428 kts | 166° |
| 2026-05-09 00:22 | 47.24181 | 19.62411 | 35064 ft | 428 kts | 166° |
| 2026-05-09 00:22 | 47.18473 | 19.64941 | 35058 ft | 428 kts | 166° |
| 2026-05-09 00:23 | 47.12764 | 19.67464 | 35053 ft | 428 kts | 166° |
| 2026-05-09 00:23 | 47.07058 | 19.69994 | 35047 ft | 429 kts | 166° |
| 2026-05-09 00:24 | 47.01349 | 19.72522 | 35040 ft | 429 kts | 166° |
| 2026-05-09 00:24 | 46.95636 | 19.75048 | 35039 ft | 429 kts | 166° |
| 2026-05-09 00:25 | 46.89917 | 19.77565 | 35041 ft | 429 kts | 166° |
| 2026-05-09 00:25 | 46.84192 | 19.80077 | 35037 ft | 430 kts | 166° |
| 2026-05-09 00:26 | 46.78458 | 19.82584 | 35043 ft | 431 kts | 166° |
| 2026-05-09 00:26 | 46.72715 | 19.85090 | 35045 ft | 431 kts | 166° |
| 2026-05-09 00:27 | 46.66976 | 19.87593 | 35048 ft | 431 kts | 166° |
| 2026-05-09 00:27 | 46.61231 | 19.90100 | 35050 ft | 431 kts | 166° |
| 2026-05-09 00:28 | 46.55464 | 19.92608 | 35046 ft | 430 kts | 167° |
| 2026-05-09 00:28 | 46.49746 | 19.95070 | 35041 ft | 430 kts | 167° |
| 2026-05-09 00:29 | 46.44018 | 19.97543 | 35040 ft | 430 kts | 166° |
| 2026-05-09 00:29 | 46.38282 | 20.00023 | 35041 ft | 430 kts | 167° |
| 2026-05-09 00:30 | 46.32545 | 20.02493 | 35045 ft | 430 kts | 167° |
| 2026-05-09 00:30 | 46.26812 | 20.04947 | 35041 ft | 430 kts | 166° |
| 2026-05-09 00:31 | 46.21086 | 20.07406 | 35045 ft | 430 kts | 166° |
| 2026-05-09 00:31 | 46.15453 | 20.10346 | 35039 ft | 434 kts | 155° |
| 2026-05-09 00:32 | 46.10296 | 20.14914 | 35045 ft | 436 kts | 151° |
| 2026-05-09 00:32 | 46.05150 | 20.19555 | 35046 ft | 436 kts | 151° |
| 2026-05-09 00:33 | 46.00014 | 20.24168 | 35052 ft | 436 kts | 151° |
| 2026-05-09 00:33 | 45.94870 | 20.28785 | 35056 ft | 436 kts | 151° |
| 2026-05-09 00:34 | 45.89727 | 20.33396 | 35051 ft | 436 kts | 151° |
| 2026-05-09 00:34 | 45.84583 | 20.37999 | 35045 ft | 436 kts | 151° |
| 2026-05-09 00:35 | 45.79436 | 20.42579 | 35040 ft | 436 kts | 151° |
| 2026-05-09 00:35 | 45.74284 | 20.47163 | 35046 ft | 436 kts | 151° |
| 2026-05-09 00:36 | 45.69134 | 20.51732 | 35046 ft | 436 kts | 151° |
| 2026-05-09 00:36 | 45.63981 | 20.56300 | 35047 ft | 436 kts | 151° |
| 2026-05-09 00:37 | 45.58829 | 20.60857 | 35046 ft | 436 kts | 151° |
| 2026-05-09 00:37 | 45.53665 | 20.65403 | 35045 ft | 435 kts | 151° |
| 2026-05-09 00:38 | 45.48504 | 20.69931 | 35039 ft | 435 kts | 151° |
| 2026-05-09 00:38 | 45.43344 | 20.74462 | 35034 ft | 436 kts | 151° |
| 2026-05-09 00:39 | 45.38189 | 20.78987 | 35033 ft | 436 kts | 151° |
| 2026-05-09 00:39 | 45.33026 | 20.83501 | 35032 ft | 436 kts | 151° |
| 2026-05-09 00:40 | 45.27860 | 20.88007 | 35027 ft | 436 kts | 151° |
| 2026-05-09 00:40 | 45.22686 | 20.92503 | 35019 ft | 436 kts | 151° |
| 2026-05-09 00:41 | 45.14917 | 20.99240 | 35012 ft | 437 kts | 151° |
| 2026-05-09 00:41 | 45.09735 | 21.03729 | 35010 ft | 437 kts | 151° |
| 2026-05-09 00:42 | 45.04534 | 21.08217 | 35013 ft | 438 kts | 151° |
| 2026-05-09 00:42 | 44.99332 | 21.12695 | 35014 ft | 438 kts | 151° |
| 2026-05-09 00:43 | 44.94131 | 21.17178 | 35016 ft | 438 kts | 151° |
| 2026-05-09 00:43 | 44.88949 | 21.21623 | 35016 ft | 438 kts | 151° |
| 2026-05-09 00:44 | 44.83734 | 21.26086 | 35019 ft | 439 kts | 151° |
| 2026-05-09 00:44 | 44.78510 | 21.30540 | 35022 ft | 439 kts | 151° |
| 2026-05-09 00:45 | 44.73274 | 21.34995 | 35022 ft | 440 kts | 151° |
| 2026-05-09 00:45 | 44.68036 | 21.39459 | 35027 ft | 441 kts | 151° |
| 2026-05-09 00:46 | 44.62791 | 21.43924 | 35029 ft | 441 kts | 151° |
| 2026-05-09 00:46 | 44.57536 | 21.48380 | 35034 ft | 441 kts | 151° |
| 2026-05-09 00:47 | 44.52284 | 21.52811 | 35027 ft | 441 kts | 151° |
| 2026-05-09 00:47 | 44.47916 | 21.56491 | 35028 ft | 441 kts | 151° |
| 2026-05-09 00:48 | 44.42620 | 21.60949 | 35020 ft | 441 kts | 151° |
| 2026-05-09 00:48 | 44.37361 | 21.65366 | 35033 ft | 441 kts | 151° |
| 2026-05-09 00:49 | 44.32095 | 21.69786 | 35036 ft | 442 kts | 151° |
| 2026-05-09 00:49 | 44.26821 | 21.74194 | 35033 ft | 442 kts | 151° |
| 2026-05-09 00:50 | 44.21550 | 21.78590 | 35026 ft | 442 kts | 151° |
| 2026-05-09 00:50 | 44.16205 | 21.83045 | 35017 ft | 442 kts | 151° |
| 2026-05-09 00:51 | 44.10946 | 21.87417 | 35011 ft | 443 kts | 151° |
| 2026-05-09 00:51 | 44.05751 | 21.91724 | 35019 ft | 443 kts | 151° |
| 2026-05-09 00:52 | 44.00445 | 21.96116 | 35018 ft | 444 kts | 151° |
| 2026-05-09 00:52 | 43.95140 | 22.00505 | 35017 ft | 445 kts | 151° |
| 2026-05-09 00:53 | 43.89813 | 22.04897 | 35015 ft | 445 kts | 151° |
| 2026-05-09 00:53 | 43.84485 | 22.09279 | 35011 ft | 446 kts | 151° |
| 2026-05-09 00:54 | 43.79144 | 22.13669 | 35015 ft | 446 kts | 151° |
| 2026-05-09 00:54 | 43.73802 | 22.18050 | 35017 ft | 447 kts | 151° |
| 2026-05-09 00:55 | 43.68436 | 22.22432 | 35019 ft | 448 kts | 151° |
| 2026-05-09 00:55 | 43.63070 | 22.26807 | 35019 ft | 448 kts | 152° |
| 2026-05-09 00:56 | 43.57705 | 22.31170 | 35022 ft | 448 kts | 152° |
| 2026-05-09 00:56 | 43.52326 | 22.35539 | 35023 ft | 448 kts | 152° |
| 2026-05-09 00:57 | 43.46945 | 22.39905 | 35025 ft | 449 kts | 152° |
| 2026-05-09 00:57 | 43.41555 | 22.44267 | 35022 ft | 450 kts | 152° |
| 2026-05-09 00:58 | 43.36199 | 22.48596 | 35029 ft | 450 kts | 152° |
| 2026-05-09 00:58 | 43.30756 | 22.52987 | 35031 ft | 450 kts | 152° |
| 2026-05-09 00:59 | 43.25349 | 22.57341 | 35036 ft | 451 kts | 152° |
| 2026-05-09 00:59 | 43.19926 | 22.61682 | 35038 ft | 451 kts | 152° |
| 2026-05-09 01:00 | 43.14491 | 22.66014 | 35035 ft | 452 kts | 152° |
| 2026-05-09 01:00 | 43.09065 | 22.70348 | 35033 ft | 452 kts | 152° |
| 2026-05-09 01:01 | 43.03636 | 22.74692 | 35036 ft | 452 kts | 152° |
| 2026-05-09 01:01 | 42.98187 | 22.79031 | 35044 ft | 453 kts | 151° |
| 2026-05-09 01:02 | 42.93052 | 22.84077 | 35045 ft | 455 kts | 145° |
| 2026-05-09 01:02 | 42.87993 | 22.89262 | 35046 ft | 455 kts | 145° |
| 2026-05-09 01:03 | 42.82916 | 22.94431 | 35039 ft | 455 kts | 146° |
| 2026-05-09 01:03 | 42.77839 | 22.99605 | 35040 ft | 456 kts | 145° |
| 2026-05-09 01:04 | 42.72762 | 23.04779 | 35043 ft | 456 kts | 145° |
| 2026-05-09 01:04 | 42.67669 | 23.09946 | 35044 ft | 457 kts | 146° |
| 2026-05-09 01:05 | 42.62572 | 23.15099 | 35047 ft | 457 kts | 146° |
| 2026-05-09 01:06 | 42.54954 | 23.22790 | 35052 ft | 458 kts | 146° |
| 2026-05-09 01:06 | 42.49831 | 23.27951 | 35054 ft | 458 kts | 146° |
| 2026-05-09 01:07 | 42.44719 | 23.33092 | 35047 ft | 458 kts | 146° |
| 2026-05-09 01:07 | 42.39602 | 23.38225 | 35047 ft | 458 kts | 146° |
| 2026-05-09 01:08 | 42.34477 | 23.43348 | 35046 ft | 459 kts | 146° |
| 2026-05-09 01:08 | 42.29335 | 23.48470 | 35046 ft | 459 kts | 147° |
| 2026-05-09 01:09 | 42.24042 | 23.53269 | 35049 ft | 458 kts | 150° |
| 2026-05-09 01:09 | 42.18616 | 23.57800 | 35053 ft | 459 kts | 151° |
| 2026-05-09 01:10 | 42.13196 | 23.62339 | 35043 ft | 459 kts | 150° |
| 2026-05-09 01:10 | 42.07788 | 23.66969 | 35044 ft | 461 kts | 150° |
| 2026-05-09 01:11 | 42.02389 | 23.71641 | 35049 ft | 462 kts | 150° |
| 2026-05-09 01:11 | 41.96964 | 23.76300 | 35054 ft | 463 kts | 150° |
| 2026-05-09 01:12 | 41.91522 | 23.80935 | 35055 ft | 464 kts | 150° |
| 2026-05-09 01:12 | 41.86069 | 23.85567 | 35058 ft | 464 kts | 150° |
| 2026-05-09 01:13 | 41.80611 | 23.90198 | 35059 ft | 465 kts | 150° |
| 2026-05-09 01:13 | 41.75142 | 23.94843 | 35063 ft | 466 kts | 150° |
| 2026-05-09 01:14 | 41.69666 | 23.99484 | 35064 ft | 466 kts | 150° |
| 2026-05-09 01:14 | 41.64185 | 24.04121 | 35060 ft | 467 kts | 150° |
| 2026-05-09 01:15 | 41.58681 | 24.08772 | 35060 ft | 468 kts | 150° |
| 2026-05-09 01:15 | 41.53163 | 24.13417 | 35060 ft | 469 kts | 150° |
| 2026-05-09 01:16 | 41.47745 | 24.18205 | 35059 ft | 471 kts | 149° |
| 2026-05-09 01:16 | 41.42326 | 24.23135 | 35058 ft | 472 kts | 148° |
| 2026-05-09 01:17 | 41.34155 | 24.30474 | 35054 ft | 473 kts | 149° |
| 2026-05-09 01:17 | 41.28675 | 24.35330 | 35054 ft | 474 kts | 149° |
| 2026-05-09 01:18 | 41.23143 | 24.40213 | 35051 ft | 474 kts | 149° |
| 2026-05-09 01:18 | 41.17515 | 24.44718 | 35033 ft | 471 kts | 158° |
| 2026-05-09 01:19 | 41.11605 | 24.48504 | 35020 ft | 472 kts | 158° |
| 2026-05-09 01:19 | 41.05672 | 24.52298 | 35010 ft | 474 kts | 158° |
| 2026-05-09 01:20 | 40.99726 | 24.56087 | 35000 ft | 475 kts | 158° |
| 2026-05-09 01:20 | 40.93752 | 24.59888 | 34998 ft | 477 kts | 159° |
| 2026-05-09 01:21 | 40.87771 | 24.63690 | 35002 ft | 478 kts | 159° |
| 2026-05-09 01:21 | 40.81755 | 24.67510 | 35004 ft | 480 kts | 159° |
| 2026-05-09 01:22 | 40.75735 | 24.71333 | 35015 ft | 481 kts | 159° |
| 2026-05-09 01:22 | 40.69698 | 24.75169 | 35023 ft | 483 kts | 159° |
| 2026-05-09 01:23 | 40.63641 | 24.79008 | 35027 ft | 483 kts | 159° |
| 2026-05-09 01:23 | 40.57607 | 24.82808 | 35033 ft | 484 kts | 159° |
| 2026-05-09 01:24 | 40.51532 | 24.86619 | 35034 ft | 485 kts | 159° |
| 2026-05-09 01:24 | 40.45440 | 24.90451 | 35028 ft | 486 kts | 159° |
| 2026-05-09 01:25 | 40.39336 | 24.94285 | 35028 ft | 486 kts | 159° |
| 2026-05-09 01:25 | 40.33225 | 24.98111 | 35025 ft | 487 kts | 159° |
| 2026-05-09 01:26 | 40.27098 | 25.01934 | 35031 ft | 488 kts | 159° |
| 2026-05-09 01:26 | 40.21998 | 25.05105 | 35041 ft | 489 kts | 160° |
| 2026-05-09 01:27 | 40.15806 | 25.08958 | 35037 ft | 489 kts | 160° |
| 2026-05-09 01:27 | 40.09664 | 25.12781 | 35036 ft | 490 kts | 160° |
| 2026-05-09 01:28 | 40.03545 | 25.16563 | 35035 ft | 490 kts | 160° |
| 2026-05-09 01:28 | 39.97387 | 25.20364 | 35031 ft | 490 kts | 160° |
| 2026-05-09 01:29 | 39.91364 | 25.24588 | 35036 ft | 497 kts | 148° |
| 2026-05-09 01:29 | 39.86048 | 25.30436 | 35035 ft | 501 kts | 142° |
| 2026-05-09 01:30 | 39.80799 | 25.36415 | 35037 ft | 502 kts | 142° |
| 2026-05-09 01:30 | 39.75536 | 25.42378 | 35047 ft | 502 kts | 142° |
| 2026-05-09 01:31 | 39.70261 | 25.48336 | 35052 ft | 502 kts | 142° |
| 2026-05-09 01:31 | 39.64987 | 25.54280 | 35057 ft | 503 kts | 142° |
| 2026-05-09 01:32 | 39.59702 | 25.60231 | 35061 ft | 503 kts | 143° |
| 2026-05-09 01:32 | 39.54426 | 25.66177 | 35064 ft | 502 kts | 143° |
| 2026-05-09 01:33 | 39.49154 | 25.72098 | 35060 ft | 502 kts | 143° |
| 2026-05-09 01:33 | 39.43873 | 25.78003 | 35066 ft | 502 kts | 143° |
| 2026-05-09 01:34 | 39.38588 | 25.83895 | 35068 ft | 502 kts | 143° |
| 2026-05-09 01:34 | 39.33300 | 25.89779 | 35074 ft | 502 kts | 143° |
| 2026-05-09 01:35 | 39.28007 | 25.95663 | 35077 ft | 502 kts | 143° |
| 2026-05-09 01:35 | 39.22667 | 26.01453 | 35074 ft | 501 kts | 144° |
| 2026-05-09 01:36 | 39.17295 | 26.07163 | 35083 ft | 500 kts | 144° |
| 2026-05-09 01:36 | 39.11931 | 26.12876 | 35083 ft | 500 kts | 144° |
| 2026-05-09 01:37 | 39.06573 | 26.18612 | 35089 ft | 501 kts | 144° |
| 2026-05-09 01:37 | 39.01253 | 26.24296 | 35090 ft | 501 kts | 144° |
| 2026-05-09 01:38 | 38.95855 | 26.30044 | 35089 ft | 500 kts | 144° |
| 2026-05-09 01:38 | 38.90529 | 26.35706 | 35088 ft | 500 kts | 145° |
| 2026-05-09 01:39 | 38.85141 | 26.41426 | 35087 ft | 500 kts | 145° |
| 2026-05-09 01:39 | 38.79821 | 26.47127 | 35086 ft | 501 kts | 143° |
| 2026-05-09 01:40 | 38.74583 | 26.53041 | 35082 ft | 502 kts | 142° |
| 2026-05-09 01:40 | 38.69368 | 26.58996 | 35088 ft | 502 kts | 143° |
| 2026-05-09 01:41 | 38.64109 | 26.64890 | 35088 ft | 502 kts | 143° |
| 2026-05-09 01:41 | 38.58917 | 26.70643 | 35091 ft | 502 kts | 143° |
| 2026-05-09 01:42 | 38.53635 | 26.76488 | 35093 ft | 502 kts | 143° |
| 2026-05-09 01:42 | 38.48364 | 26.82343 | 35100 ft | 502 kts | 143° |
| 2026-05-09 01:43 | 38.43130 | 26.88151 | 35098 ft | 502 kts | 143° |
| 2026-05-09 01:43 | 38.37851 | 26.93985 | 35098 ft | 502 kts | 143° |
| 2026-05-09 01:44 | 38.32497 | 26.99655 | 35089 ft | 497 kts | 151° |
| 2026-05-09 01:44 | 38.26463 | 27.03664 | 35084 ft | 486 kts | 163° |
| 2026-05-09 01:45 | 38.20249 | 27.07094 | 35083 ft | 487 kts | 163° |
| 2026-05-09 01:45 | 38.14040 | 27.10543 | 35093 ft | 487 kts | 163° |
| 2026-05-09 01:46 | 38.07863 | 27.13977 | 35097 ft | 487 kts | 163° |
| 2026-05-09 01:46 | 38.01607 | 27.17427 | 35103 ft | 487 kts | 163° |
| 2026-05-09 01:47 | 37.95387 | 27.20843 | 35108 ft | 488 kts | 163° |
| 2026-05-09 01:47 | 37.89197 | 27.24244 | 35115 ft | 488 kts | 163° |
| 2026-05-09 01:48 | 37.82975 | 27.27664 | 35119 ft | 488 kts | 163° |
| 2026-05-09 01:48 | 37.76751 | 27.31073 | 35117 ft | 488 kts | 163° |
| 2026-05-09 01:49 | 37.70530 | 27.34479 | 35118 ft | 488 kts | 163° |
| 2026-05-09 01:49 | 37.64301 | 27.37886 | 35116 ft | 488 kts | 163° |
| 2026-05-09 01:50 | 37.58093 | 27.41338 | 35120 ft | 488 kts | 162° |
| 2026-05-09 01:50 | 37.51912 | 27.44919 | 35126 ft | 489 kts | 161° |
| 2026-05-09 01:51 | 37.45718 | 27.48437 | 35126 ft | 487 kts | 163° |
| 2026-05-09 01:51 | 37.39462 | 27.51699 | 35141 ft | 486 kts | 164° |
| 2026-05-09 01:52 | 37.33195 | 27.54882 | 35139 ft | 486 kts | 164° |
| 2026-05-09 01:52 | 37.26934 | 27.58126 | 35144 ft | 486 kts | 163° |
| 2026-05-09 01:53 | 37.20718 | 27.61491 | 35140 ft | 487 kts | 162° |
| 2026-05-09 01:53 | 37.14512 | 27.64911 | 35145 ft | 487 kts | 162° |
| 2026-05-09 01:54 | 37.08312 | 27.68286 | 35139 ft | 487 kts | 163° |
| 2026-05-09 01:54 | 37.02073 | 27.71650 | 35126 ft | 487 kts | 163° |
| 2026-05-09 01:55 | 36.95853 | 27.74986 | 35115 ft | 487 kts | 163° |
| 2026-05-09 01:55 | 36.89634 | 27.78324 | 35114 ft | 487 kts | 163° |
| 2026-05-09 01:56 | 36.83446 | 27.81648 | 35112 ft | 487 kts | 163° |
| 2026-05-09 01:56 | 36.77192 | 27.84999 | 35117 ft | 487 kts | 162° |
| 2026-05-09 01:57 | 36.70962 | 27.88328 | 35114 ft | 486 kts | 163° |
| 2026-05-09 01:57 | 36.64775 | 27.91600 | 35112 ft | 486 kts | 163° |
| 2026-05-09 01:58 | 36.58543 | 27.94837 | 35112 ft | 485 kts | 163° |
| 2026-05-09 01:58 | 36.52310 | 27.98057 | 35116 ft | 485 kts | 163° |
| 2026-05-09 01:59 | 36.46086 | 28.01333 | 35117 ft | 486 kts | 162° |
| 2026-05-09 01:59 | 36.39919 | 28.04805 | 35114 ft | 487 kts | 161° |
| 2026-05-09 02:00 | 36.33979 | 28.08921 | 35116 ft | 495 kts | 147° |
| 2026-05-09 02:00 | 36.29010 | 28.14907 | 35100 ft | 501 kts | 136° |
| 2026-05-09 02:01 | 36.24289 | 28.21242 | 35109 ft | 501 kts | 136° |
| 2026-05-09 02:01 | 36.19546 | 28.27563 | 35112 ft | 500 kts | 136° |
| 2026-05-09 02:02 | 36.14812 | 28.33872 | 35114 ft | 500 kts | 136° |
| 2026-05-09 02:02 | 36.10079 | 28.40179 | 35116 ft | 500 kts | 136° |
| 2026-05-09 02:03 | 36.05346 | 28.46471 | 35118 ft | 499 kts | 136° |
| 2026-05-09 02:03 | 36.00611 | 28.52743 | 35121 ft | 499 kts | 136° |
| 2026-05-09 02:04 | 35.95879 | 28.59004 | 35125 ft | 498 kts | 136° |
| 2026-05-09 02:04 | 35.91147 | 28.65251 | 35129 ft | 498 kts | 136° |
| 2026-05-09 02:05 | 35.86372 | 28.71427 | 35128 ft | 496 kts | 139° |
| 2026-05-09 02:05 | 35.81399 | 28.77317 | 35125 ft | 495 kts | 141° |
| 2026-05-09 02:06 | 35.76357 | 28.83089 | 35127 ft | 495 kts | 140° |
| 2026-05-09 02:07 | 35.68895 | 28.91794 | 35124 ft | 494 kts | 140° |
| 2026-05-09 02:07 | 35.63914 | 28.97679 | 35121 ft | 494 kts | 140° |
| 2026-05-09 02:08 | 35.58952 | 29.03505 | 35121 ft | 494 kts | 140° |
| 2026-05-09 02:08 | 35.53967 | 29.09332 | 35123 ft | 494 kts | 140° |
| 2026-05-09 02:09 | 35.48958 | 29.15185 | 35126 ft | 494 kts | 140° |
| 2026-05-09 02:09 | 35.43971 | 29.20996 | 35126 ft | 494 kts | 140° |
| 2026-05-09 02:10 | 35.38986 | 29.26788 | 35129 ft | 494 kts | 140° |
| 2026-05-09 02:10 | 35.34855 | 29.31600 | 35126 ft | 493 kts | 140° |
| 2026-05-09 02:11 | 35.29849 | 29.37421 | 35123 ft | 493 kts | 140° |
| 2026-05-09 02:11 | 35.24902 | 29.43148 | 35124 ft | 492 kts | 140° |
| 2026-05-09 02:12 | 35.19926 | 29.48893 | 35126 ft | 492 kts | 140° |
| 2026-05-09 02:12 | 35.14944 | 29.54631 | 35127 ft | 492 kts | 140° |
| 2026-05-09 02:13 | 35.09963 | 29.60359 | 35129 ft | 492 kts | 140° |
| 2026-05-09 02:13 | 35.04979 | 29.66084 | 35132 ft | 491 kts | 140° |
| 2026-05-09 02:14 | 35.00004 | 29.71794 | 35130 ft | 491 kts | 140° |
| 2026-05-09 02:14 | 34.95036 | 29.77509 | 35128 ft | 491 kts | 140° |
| 2026-05-09 02:15 | 34.90113 | 29.83266 | 35130 ft | 490 kts | 139° |
| 2026-05-09 02:15 | 34.85208 | 29.89028 | 35126 ft | 490 kts | 139° |
| 2026-05-09 02:16 | 34.80292 | 29.94771 | 35126 ft | 489 kts | 139° |
| 2026-05-09 02:16 | 34.75149 | 30.00090 | 35118 ft | 482 kts | 152° |
| 2026-05-09 02:17 | 34.69242 | 30.03814 | 35114 ft | 477 kts | 159° |
| 2026-05-09 02:17 | 34.63263 | 30.07307 | 35109 ft | 477 kts | 159° |
| 2026-05-09 02:18 | 34.57316 | 30.10785 | 35112 ft | 477 kts | 159° |
| 2026-05-09 02:18 | 34.51329 | 30.14271 | 35107 ft | 478 kts | 159° |
| 2026-05-09 02:19 | 34.45332 | 30.17751 | 35109 ft | 478 kts | 159° |
| 2026-05-09 02:19 | 34.39342 | 30.21225 | 35107 ft | 478 kts | 159° |
| 2026-05-09 02:20 | 34.33336 | 30.24714 | 35103 ft | 478 kts | 159° |
| 2026-05-09 02:20 | 34.27343 | 30.28190 | 35105 ft | 478 kts | 159° |
| 2026-05-09 02:21 | 34.21335 | 30.31658 | 35105 ft | 478 kts | 159° |
| 2026-05-09 02:21 | 34.15327 | 30.35115 | 35095 ft | 479 kts | 159° |
| 2026-05-09 02:22 | 34.09308 | 30.38574 | 35100 ft | 479 kts | 159° |
| 2026-05-09 02:22 | 34.03290 | 30.42040 | 35101 ft | 479 kts | 159° |
| 2026-05-09 02:23 | 33.97266 | 30.45501 | 35101 ft | 480 kts | 159° |
| 2026-05-09 02:23 | 33.91236 | 30.48957 | 35100 ft | 480 kts | 159° |
| 2026-05-09 02:24 | 33.85203 | 30.52411 | 35099 ft | 480 kts | 159° |
| 2026-05-09 02:24 | 33.79172 | 30.55864 | 35092 ft | 481 kts | 159° |
| 2026-05-09 02:25 | 33.73125 | 30.59311 | 35090 ft | 481 kts | 159° |
| 2026-05-09 02:25 | 33.67063 | 30.62756 | 35095 ft | 482 kts | 159° |
| 2026-05-09 02:26 | 33.61005 | 30.66203 | 35089 ft | 482 kts | 159° |
| 2026-05-09 02:26 | 33.54929 | 30.69656 | 35089 ft | 483 kts | 160° |
| 2026-05-09 02:27 | 33.48847 | 30.73099 | 35086 ft | 484 kts | 160° |
| 2026-05-09 02:27 | 33.42757 | 30.76545 | 35088 ft | 484 kts | 160° |
| 2026-05-09 02:28 | 33.36710 | 30.79958 | 35093 ft | 484 kts | 160° |
| 2026-05-09 02:28 | 33.30610 | 30.83408 | 35094 ft | 484 kts | 160° |
| 2026-05-09 02:29 | 33.24518 | 30.86847 | 35096 ft | 484 kts | 160° |
| 2026-05-09 02:29 | 33.18427 | 30.90265 | 35095 ft | 484 kts | 160° |
| 2026-05-09 02:30 | 33.12324 | 30.93636 | 35094 ft | 481 kts | 164° |
| 2026-05-09 02:30 | 33.05947 | 30.95482 | 35092 ft | 466 kts | 181° |
| 2026-05-09 02:31 | 32.99494 | 30.96176 | 35094 ft | 466 kts | 181° |
| 2026-05-09 02:31 | 32.93029 | 30.96893 | 35090 ft | 467 kts | 181° |
| 2026-05-09 02:32 | 32.86563 | 30.97618 | 35088 ft | 466 kts | 181° |
| 2026-05-09 02:32 | 32.80100 | 30.98345 | 35090 ft | 466 kts | 181° |
| 2026-05-09 02:33 | 32.73635 | 30.99070 | 35092 ft | 466 kts | 181° |
| 2026-05-09 02:33 | 32.67176 | 30.99794 | 35090 ft | 466 kts | 181° |
| 2026-05-09 02:34 | 32.60712 | 31.00512 | 35093 ft | 466 kts | 181° |
| 2026-05-09 02:34 | 32.54253 | 31.01219 | 35100 ft | 466 kts | 181° |
| 2026-05-09 02:35 | 32.47804 | 31.01929 | 35105 ft | 465 kts | 181° |
| 2026-05-09 02:35 | 32.41402 | 31.02646 | 35096 ft | 465 kts | 181° |
| 2026-05-09 02:36 | 32.34969 | 31.03356 | 35093 ft | 464 kts | 181° |
| 2026-05-09 02:36 | 32.28547 | 31.04064 | 35096 ft | 464 kts | 181° |
| 2026-05-09 02:37 | 32.22121 | 31.04774 | 35095 ft | 463 kts | 181° |
| 2026-05-09 02:37 | 32.15699 | 31.05486 | 35097 ft | 463 kts | 181° |
| 2026-05-09 02:38 | 32.09281 | 31.06195 | 35088 ft | 463 kts | 181° |
| 2026-05-09 02:38 | 32.02865 | 31.06895 | 35090 ft | 463 kts | 181° |
| 2026-05-09 02:39 | 31.96450 | 31.07583 | 35097 ft | 462 kts | 181° |
| 2026-05-09 02:39 | 31.90046 | 31.08268 | 35096 ft | 462 kts | 181° |
| 2026-05-09 02:40 | 31.83652 | 31.08956 | 35098 ft | 461 kts | 181° |
| 2026-05-09 02:40 | 31.77318 | 31.09643 | 35097 ft | 461 kts | 181° |
| 2026-05-09 02:41 | 31.70885 | 31.10337 | 35091 ft | 460 kts | 181° |
| 2026-05-09 02:41 | 31.64563 | 31.11010 | 35092 ft | 459 kts | 181° |
| 2026-05-09 02:42 | 31.58197 | 31.11691 | 35088 ft | 459 kts | 181° |
| 2026-05-09 02:42 | 31.51847 | 31.12388 | 35084 ft | 459 kts | 179° |
| 2026-05-09 02:43 | 31.45504 | 31.13452 | 35081 ft | 461 kts | 176° |
| 2026-05-09 02:43 | 31.39181 | 31.14768 | 35080 ft | 461 kts | 175° |
| 2026-05-09 02:44 | 31.32864 | 31.16045 | 35082 ft | 460 kts | 176° |
| 2026-05-09 02:44 | 31.26557 | 31.17225 | 35085 ft | 459 kts | 176° |
| 2026-05-09 02:45 | 31.20257 | 31.18373 | 35086 ft | 458 kts | 176° |
| 2026-05-09 02:45 | 31.13956 | 31.19536 | 35085 ft | 458 kts | 176° |
| 2026-05-09 02:46 | 31.07673 | 31.20706 | 35089 ft | 457 kts | 176° |
| 2026-05-09 02:46 | 31.01391 | 31.21880 | 35085 ft | 457 kts | 176° |
| 2026-05-09 02:47 | 30.95189 | 31.23035 | 35083 ft | 456 kts | 176° |
| 2026-05-09 02:47 | 30.88913 | 31.24195 | 35082 ft | 456 kts | 176° |
| 2026-05-09 02:48 | 30.82652 | 31.25354 | 35083 ft | 456 kts | 176° |
| 2026-05-09 02:48 | 30.76388 | 31.26516 | 35082 ft | 456 kts | 176° |
| 2026-05-09 02:49 | 30.70134 | 31.27672 | 35087 ft | 455 kts | 176° |
| 2026-05-09 02:49 | 30.63879 | 31.28825 | 35088 ft | 455 kts | 176° |
| 2026-05-09 02:50 | 30.57627 | 31.29983 | 35081 ft | 454 kts | 176° |
| 2026-05-09 02:50 | 30.51384 | 31.31132 | 35090 ft | 454 kts | 175° |
| 2026-05-09 02:51 | 30.45138 | 31.32280 | 35086 ft | 454 kts | 175° |
| 2026-05-09 02:51 | 30.38891 | 31.33424 | 35087 ft | 454 kts | 175° |
| 2026-05-09 02:52 | 30.32656 | 31.34566 | 35087 ft | 454 kts | 175° |
| 2026-05-09 02:52 | 30.26413 | 31.35710 | 35086 ft | 453 kts | 175° |
| 2026-05-09 02:53 | 30.20187 | 31.36849 | 35085 ft | 453 kts | 175° |
| 2026-05-09 02:53 | 30.13964 | 31.37988 | 35083 ft | 453 kts | 175° |
| 2026-05-09 02:54 | 30.07764 | 31.39325 | 35077 ft | 456 kts | 168° |
| 2026-05-09 02:54 | 30.01667 | 31.41353 | 35072 ft | 456 kts | 168° |
| 2026-05-09 02:55 | 29.95564 | 31.43388 | 35066 ft | 457 kts | 168° |
| 2026-05-09 02:55 | 29.89499 | 31.45405 | 35064 ft | 457 kts | 168° |
| 2026-05-09 02:56 | 29.83379 | 31.47435 | 35060 ft | 457 kts | 168° |
| 2026-05-09 02:56 | 29.77261 | 31.49451 | 35057 ft | 458 kts | 168° |
| 2026-05-09 02:57 | 29.71135 | 31.51464 | 35055 ft | 458 kts | 168° |
| 2026-05-09 02:57 | 29.66001 | 31.53161 | 35053 ft | 458 kts | 168° |
| 2026-05-09 02:58 | 29.59864 | 31.55173 | 35056 ft | 458 kts | 168° |
| 2026-05-09 02:58 | 29.53727 | 31.57172 | 35056 ft | 459 kts | 168° |
| 2026-05-09 02:59 | 29.47589 | 31.59178 | 35056 ft | 459 kts | 168° |
| 2026-05-09 02:59 | 29.41441 | 31.61184 | 35054 ft | 459 kts | 168° |
| 2026-05-09 03:00 | 29.35288 | 31.63189 | 35056 ft | 459 kts | 168° |
| 2026-05-09 03:00 | 29.29140 | 31.65195 | 35048 ft | 460 kts | 168° |
| 2026-05-09 03:01 | 29.22985 | 31.67191 | 35049 ft | 460 kts | 168° |
| 2026-05-09 03:01 | 29.16827 | 31.69183 | 35054 ft | 460 kts | 168° |
| 2026-05-09 03:02 | 29.10667 | 31.71188 | 35055 ft | 460 kts | 168° |
| 2026-05-09 03:02 | 29.04514 | 31.73182 | 35052 ft | 460 kts | 168° |
| 2026-05-09 03:03 | 28.98358 | 31.75168 | 35052 ft | 459 kts | 168° |
| 2026-05-09 03:03 | 28.92213 | 31.77136 | 35057 ft | 459 kts | 168° |
| 2026-05-09 03:04 | 28.86065 | 31.79085 | 35045 ft | 458 kts | 168° |
| 2026-05-09 03:04 | 28.79928 | 31.81028 | 35045 ft | 458 kts | 168° |
| 2026-05-09 03:05 | 28.73786 | 31.82972 | 35046 ft | 458 kts | 168° |
| 2026-05-09 03:05 | 28.67597 | 31.84936 | 35046 ft | 458 kts | 168° |
| 2026-05-09 03:06 | 28.61493 | 31.86874 | 35042 ft | 458 kts | 168° |
| 2026-05-09 03:06 | 28.55348 | 31.88819 | 35038 ft | 458 kts | 168° |
| 2026-05-09 03:07 | 28.49206 | 31.90753 | 35044 ft | 458 kts | 168° |
| 2026-05-09 03:07 | 28.43062 | 31.92685 | 35059 ft | 458 kts | 168° |
| 2026-05-09 03:08 | 28.36922 | 31.94617 | 35057 ft | 458 kts | 168° |
| 2026-05-09 03:08 | 28.30793 | 31.96543 | 35058 ft | 457 kts | 168° |
| 2026-05-09 03:09 | 28.24656 | 31.98483 | 35056 ft | 457 kts | 168° |
| 2026-05-09 03:09 | 28.18528 | 32.00416 | 35054 ft | 457 kts | 168° |
| 2026-05-09 03:10 | 28.12388 | 32.02328 | 35052 ft | 457 kts | 168° |
| 2026-05-09 03:10 | 28.06246 | 32.04239 | 35047 ft | 458 kts | 167° |
| 2026-05-09 03:11 | 28.00114 | 32.06171 | 35046 ft | 458 kts | 167° |
| 2026-05-09 03:11 | 27.93984 | 32.08141 | 35046 ft | 458 kts | 167° |
| 2026-05-09 03:12 | 27.87852 | 32.10116 | 35043 ft | 458 kts | 167° |
| 2026-05-09 03:12 | 27.81721 | 32.12085 | 35037 ft | 458 kts | 167° |
| 2026-05-09 03:13 | 27.72517 | 32.15025 | 35036 ft | 458 kts | 167° |
| 2026-05-09 03:13 | 27.66377 | 32.16978 | 35034 ft | 458 kts | 167° |
| 2026-05-09 03:14 | 27.60239 | 32.18929 | 35031 ft | 458 kts | 167° |
| 2026-05-09 03:14 | 27.54105 | 32.20876 | 35029 ft | 458 kts | 167° |
| 2026-05-09 03:15 | 27.47962 | 32.22823 | 35030 ft | 458 kts | 167° |
| 2026-05-09 03:15 | 27.41829 | 32.24771 | 35029 ft | 458 kts | 167° |
| 2026-05-09 03:16 | 27.35688 | 32.26710 | 35032 ft | 458 kts | 167° |
| 2026-05-09 03:16 | 27.29559 | 32.28642 | 35032 ft | 457 kts | 167° |
| 2026-05-09 03:17 | 27.23431 | 32.30578 | 35028 ft | 457 kts | 167° |
| 2026-05-09 03:17 | 27.17354 | 32.32505 | 35028 ft | 457 kts | 167° |
| 2026-05-09 03:18 | 27.11241 | 32.34441 | 35022 ft | 456 kts | 167° |
| 2026-05-09 03:18 | 27.05128 | 32.36360 | 35019 ft | 456 kts | 167° |
| 2026-05-09 03:19 | 26.99015 | 32.38276 | 35013 ft | 456 kts | 167° |
| 2026-05-09 03:19 | 26.92904 | 32.40198 | 35013 ft | 456 kts | 167° |
| 2026-05-09 03:20 | 26.86809 | 32.42117 | 35003 ft | 455 kts | 167° |
| 2026-05-09 03:20 | 26.80710 | 32.44019 | 35004 ft | 455 kts | 167° |
| 2026-05-09 03:21 | 26.74612 | 32.45924 | 34999 ft | 455 kts | 167° |
| 2026-05-09 03:21 | 26.68518 | 32.47838 | 34992 ft | 454 kts | 167° |
| 2026-05-09 03:22 | 26.62431 | 32.49750 | 34985 ft | 454 kts | 167° |
| 2026-05-09 03:22 | 26.56345 | 32.51651 | 34980 ft | 454 kts | 167° |
| 2026-05-09 03:23 | 26.50258 | 32.53543 | 34972 ft | 454 kts | 167° |
| 2026-05-09 03:23 | 26.44174 | 32.55433 | 34967 ft | 454 kts | 167° |
| 2026-05-09 03:24 | 26.38087 | 32.57328 | 34960 ft | 454 kts | 167° |
| 2026-05-09 03:24 | 26.32011 | 32.59226 | 34958 ft | 454 kts | 167° |
| 2026-05-09 03:25 | 26.25929 | 32.61119 | 34951 ft | 454 kts | 167° |
| 2026-05-09 03:25 | 26.19848 | 32.63005 | 34949 ft | 453 kts | 167° |
| 2026-05-09 03:26 | 26.13774 | 32.64876 | 34943 ft | 453 kts | 168° |
| 2026-05-09 03:26 | 26.07691 | 32.66751 | 34935 ft | 453 kts | 167° |
| 2026-05-09 03:27 | 26.01613 | 32.68633 | 34933 ft | 453 kts | 167° |
| 2026-05-09 03:27 | 25.95538 | 32.70514 | 34932 ft | 453 kts | 167° |
| 2026-05-09 03:28 | 25.89468 | 32.72395 | 34932 ft | 453 kts | 167° |
| 2026-05-09 03:28 | 25.83427 | 32.74254 | 34934 ft | 453 kts | 167° |
| 2026-05-09 03:29 | 25.77509 | 32.76666 | 34936 ft | 458 kts | 153° |
| 2026-05-09 03:29 | 25.74866 | 32.78655 | 34934 ft | 461 kts | 142° |
| 2026-05-09 03:29 | 25.72563 | 32.81139 | 34931 ft | 464 kts | 132° |
| 2026-05-09 03:30 | 25.68881 | 32.87038 | 34928 ft | 466 kts | 125° |
| 2026-05-09 03:30 | 25.65299 | 32.93037 | 34923 ft | 467 kts | 125° |
| 2026-05-09 03:31 | 25.61712 | 32.99034 | 34921 ft | 467 kts | 125° |
| 2026-05-09 03:31 | 25.58126 | 33.05025 | 34921 ft | 467 kts | 125° |
| 2026-05-09 03:32 | 25.54532 | 33.11025 | 34920 ft | 467 kts | 125° |
| 2026-05-09 03:32 | 25.50939 | 33.17015 | 34924 ft | 467 kts | 125° |
| 2026-05-09 03:33 | 25.49138 | 33.20006 | 34807 ft | 468 kts | 125° |
| 2026-05-09 03:33 | 25.47316 | 33.23030 | 33745 ft | 477 kts | 125° |
| 2026-05-09 03:33 | 25.45462 | 33.26107 | 32712 ft | 482 kts | 125° |
| 2026-05-09 03:33 | 25.43623 | 33.29164 | 32257 ft | 473 kts | 125° |
| 2026-05-09 03:34 | 25.41805 | 33.32187 | 31615 ft | 470 kts | 125° |
| 2026-05-09 03:34 | 25.40000 | 33.35190 | 31004 ft | 467 kts | 125° |
| 2026-05-09 03:34 | 25.38208 | 33.38166 | 30399 ft | 464 kts | 125° |
| 2026-05-09 03:34 | 25.36421 | 33.41125 | 29761 ft | 461 kts | 126° |
| 2026-05-09 03:35 | 25.34714 | 33.44109 | 29150 ft | 458 kts | 119° |
| 2026-05-09 03:35 | 25.33509 | 33.47354 | 28561 ft | 456 kts | 107° |
| 2026-05-09 03:35 | 25.32927 | 33.50783 | 27987 ft | 453 kts | 95° |
| 2026-05-09 03:35 | 25.32971 | 33.54250 | 27440 ft | 449 kts | 83° |
| 2026-05-09 03:36 | 25.33607 | 33.57608 | 26897 ft | 445 kts | 73° |
| 2026-05-09 03:36 | 25.34432 | 33.60839 | 26377 ft | 441 kts | 73° |
| 2026-05-09 03:36 | 25.35271 | 33.64137 | 25862 ft | 438 kts | 73° |
| 2026-05-09 03:36 | 25.36077 | 33.67319 | 25366 ft | 434 kts | 73° |
| 2026-05-09 03:37 | 25.36884 | 33.70519 | 24876 ft | 431 kts | 73° |
| 2026-05-09 03:37 | 25.37684 | 33.73711 | 24389 ft | 429 kts | 74° |
| 2026-05-09 03:37 | 25.38479 | 33.76880 | 23900 ft | 427 kts | 74° |
| 2026-05-09 03:37 | 25.39270 | 33.80029 | 23383 ft | 425 kts | 74° |
| 2026-05-09 03:38 | 25.40057 | 33.83171 | 22876 ft | 422 kts | 74° |
| 2026-05-09 03:38 | 25.40836 | 33.86287 | 22373 ft | 419 kts | 74° |
| 2026-05-09 03:38 | 25.41612 | 33.89384 | 21870 ft | 416 kts | 73° |
| 2026-05-09 03:38 | 25.42383 | 33.92461 | 21384 ft | 414 kts | 73° |
| 2026-05-09 03:39 | 25.43149 | 33.95523 | 20889 ft | 412 kts | 73° |
| 2026-05-09 03:39 | 25.43908 | 33.98561 | 20395 ft | 410 kts | 73° |
| 2026-05-09 03:39 | 25.44665 | 34.01596 | 19892 ft | 408 kts | 73° |
| 2026-05-09 03:39 | 25.45418 | 34.04621 | 19397 ft | 407 kts | 73° |
| 2026-05-09 03:40 | 25.46170 | 34.07635 | 18904 ft | 406 kts | 73° |
| 2026-05-09 03:40 | 25.46667 | 34.09626 | 18581 ft | 405 kts | 73° |
| 2026-05-09 03:40 | 25.47415 | 34.12621 | 18132 ft | 402 kts | 73° |
| 2026-05-09 03:40 | 25.48154 | 34.15587 | 17598 ft | 399 kts | 73° |
| 2026-05-09 03:41 | 25.48875 | 34.18497 | 17072 ft | 384 kts | 73° |
| 2026-05-09 03:41 | 25.49567 | 34.21293 | 16624 ft | 371 kts | 73° |
| 2026-05-09 03:41 | 25.50244 | 34.24031 | 16169 ft | 370 kts | 73° |
| 2026-05-09 03:41 | 25.50928 | 34.26788 | 15718 ft | 369 kts | 73° |
| 2026-05-09 03:42 | 25.51606 | 34.29518 | 15265 ft | 368 kts | 74° |
| 2026-05-09 03:42 | 25.52281 | 34.32251 | 14812 ft | 367 kts | 74° |
| 2026-05-09 03:42 | 25.52953 | 34.34971 | 14362 ft | 367 kts | 74° |
| 2026-05-09 03:42 | 25.53625 | 34.37695 | 13901 ft | 366 kts | 74° |
| 2026-05-09 03:43 | 25.54295 | 34.40413 | 13407 ft | 366 kts | 74° |
| 2026-05-09 03:43 | 25.54963 | 34.43123 | 12934 ft | 364 kts | 74° |
| 2026-05-09 03:43 | 25.55622 | 34.45808 | 12466 ft | 361 kts | 74° |
| 2026-05-09 03:43 | 25.56273 | 34.48475 | 11992 ft | 350 kts | 74° |
| 2026-05-09 03:44 | 25.56893 | 34.51021 | 11542 ft | 336 kts | 74° |
| 2026-05-09 03:44 | 25.57490 | 34.53471 | 11112 ft | 322 kts | 75° |
| 2026-05-09 03:44 | 25.57782 | 34.55867 | 10855 ft | 306 kts | 88° |
| 2026-05-09 03:44 | 25.57599 | 34.58168 | 10476 ft | 296 kts | 101° |
| 2026-05-09 03:45 | 25.56981 | 34.60301 | 10108 ft | 286 kts | 111° |
| 2026-05-09 03:45 | 25.56229 | 34.62300 | 9737 ft | 277 kts | 111° |
| 2026-05-09 03:45 | 25.55500 | 34.64262 | 9337 ft | 275 kts | 111° |
| 2026-05-09 03:45 | 25.54776 | 34.66216 | 8929 ft | 273 kts | 111° |
| 2026-05-09 03:46 | 25.54067 | 34.68133 | 8533 ft | 264 kts | 111° |
| 2026-05-09 03:46 | 25.53382 | 34.69981 | 8149 ft | 257 kts | 111° |
| 2026-05-09 03:46 | 25.52701 | 34.71819 | 7775 ft | 258 kts | 111° |
| 2026-05-09 03:46 | 25.52023 | 34.73644 | 7389 ft | 253 kts | 111° |
| 2026-05-09 03:47 | 25.51345 | 34.75406 | 7013 ft | 245 kts | 117° |
| 2026-05-09 03:47 | 25.50326 | 34.76878 | 6640 ft | 239 kts | 139° |
| 2026-05-09 03:47 | 25.48945 | 34.77840 | 6289 ft | 232 kts | 159° |
| 2026-05-09 03:47 | 25.47399 | 34.78216 | 5921 ft | 226 kts | 178° |
| 2026-05-09 03:48 | 25.45856 | 34.78006 | 5564 ft | 224 kts | 198° |
| 2026-05-09 03:48 | 25.44460 | 34.77244 | 5200 ft | 225 kts | 218° |
| 2026-05-09 03:48 | 25.43373 | 34.76009 | 4846 ft | 225 kts | 238° |
| 2026-05-09 03:48 | 25.42585 | 34.74530 | 4476 ft | 221 kts | 242° |
| 2026-05-09 03:49 | 25.41821 | 34.73080 | 4117 ft | 216 kts | 242° |
| 2026-05-09 03:49 | 25.41077 | 34.71676 | 3789 ft | 208 kts | 242° |
| 2026-05-09 03:49 | 25.40476 | 34.70263 | 3407 ft | 199 kts | 262° |
| 2026-05-09 03:49 | 25.40576 | 34.68793 | 3049 ft | 190 kts | 295° |
| 2026-05-09 03:50 | 25.41323 | 34.67655 | 2750 ft | 180 kts | 324° |
| 2026-05-09 03:50 | 25.42368 | 34.66954 | 2549 ft | 172 kts | 332° |
| 2026-05-09 03:50 | 25.43388 | 34.66297 | 2456 ft | 164 kts | 332° |
| 2026-05-09 03:50 | 25.44351 | 34.65676 | 2359 ft | 156 kts | 332° |
| 2026-05-09 03:51 | 25.45253 | 34.65095 | 2242 ft | 147 kts | 332° |
| 2026-05-09 03:51 | 25.46122 | 34.64536 | 2060 ft | 143 kts | 332° |
| 2026-05-09 03:51 | 25.46966 | 34.63991 | 1933 ft | 141 kts | 331° |
| 2026-05-09 03:51 | 25.47827 | 34.63437 | 1798 ft | 141 kts | 331° |
| 2026-05-09 03:52 | 25.48673 | 34.62893 | 1616 ft | 141 kts | 331° |
| 2026-05-09 03:52 | 25.49524 | 34.62346 | 1358 ft | 141 kts | 330° |
| 2026-05-09 03:52 | 25.50357 | 34.61809 | 1188 ft | 141 kts | 329° |
| 2026-05-09 03:52 | 25.51199 | 34.61266 | 1010 ft | 140 kts | 331° |
| 2026-05-09 03:53 | 25.52050 | 34.60743 | 822 ft | 140 kts | 330° |
| 2026-05-09 03:53 | 25.52887 | 34.60204 | 617 ft | 139 kts | 329° |
| 2026-05-09 03:53 | 25.53718 | 34.59668 | 427 ft | 137 kts | 329° |
| 2026-05-09 03:53 | 25.54535 | 34.59135 | 295 ft | 136 kts | 328° |
| 2026-05-09 03:54 | 25.55286 | 34.58655 | 255 ft | 104 kts | 334° |
| 2026-05-09 03:54 | 25.55761 | 34.58349 | 261 ft | 54 kts | 330° |
| 2026-05-09 03:54 | 25.55923 | 34.58244 | 263 ft | 16 kts | 329° |
| 2026-05-09 03:54 | 25.56020 | 34.58185 | 261 ft | 16 kts | 339° |
| 2026-05-09 03:55 | 25.56109 | 34.58173 | 260 ft | 9 kts | 303° |
| 2026-05-09 03:55 | 25.56053 | 34.58159 | 260 ft | 17 kts | 153° |
| 2026-05-09 03:55 | 25.55941 | 34.58231 | 263 ft | 18 kts | 150° |
| 2026-05-09 03:55 | 25.55839 | 34.58295 | 262 ft | 16 kts | 151° |
| 2026-05-09 03:56 | 25.55762 | 34.58342 | 261 ft | 20 kts | 150° |
| 2026-05-09 03:56 | 25.55633 | 34.58426 | 261 ft | 21 kts | 149° |
| 2026-05-09 03:56 | 25.55510 | 34.58507 | 257 ft | 19 kts | 147° |
| 2026-05-09 03:56 | 25.55507 | 34.58614 | 256 ft | 14 kts | 59° |
| 2026-05-09 03:57 | 25.55557 | 34.58708 | 254 ft | 14 kts | 60° |
| 2026-05-09 03:57 | 25.55615 | 34.58817 | 244 ft | 19 kts | 59° |
| 2026-05-09 03:57 | 25.55595 | 34.58914 | 242 ft | 14 kts | 148° |
| 2026-05-09 03:57 | 25.55517 | 34.58967 | 242 ft | 12 kts | 149° |
| 2026-05-09 03:58 | 25.55456 | 34.59007 | 242 ft | 5 kts | 149° |
| 2026-05-09 03:58 | 25.55441 | 34.59032 | 242 ft | 3 kts | 89° |
| 2026-05-09 03:58 | 25.55449 | 34.59050 | 242 ft | 2 kts | 60° |
| 2026-05-09 03:58 | 25.55456 | 34.59063 | 242 ft | 2 kts | 59° |
| 2026-05-09 03:59 | 25.55461 | 34.59072 | 242 ft | 1 kts | 59° |
| 2026-05-09 03:59 | 25.55465 | 34.59079 | 242 ft | 2 kts | 59° |
| 2026-05-09 03:59 | 25.55470 | 34.59089 | 242 ft | 1 kts | 59° |
| 2026-05-09 03:59 | 25.55473 | 34.59093 | 242 ft | 0 kts | 59° |
| 2026-05-09 04:06 | 25.55472 | 34.59093 | 242 ft | 0 kts | 59° |
| 2026-05-09 04:20 | 25.55472 | 34.59092 | 242 ft | 0 kts | 59° |